createdAt,value
2017-03-22T00:01:34.486Z,1003.34
2017-03-22T00:02:14.942Z,1003.31
2017-03-22T00:02:55.428Z,1003.37
2017-03-22T00:03:35.914Z,1003.33
2017-03-22T00:04:16.390Z,1003.37
2017-03-22T00:04:56.839Z,1003.42
2017-03-22T00:05:37.298Z,1003.37
2017-03-22T00:07:55.120Z,1003.36
2017-03-22T00:08:35.555Z,1003.31
2017-03-22T00:09:16.027Z,1003.3
2017-03-22T00:09:56.512Z,1003.28
2017-03-22T00:10:36.988Z,1003.32
2017-03-22T00:11:17.472Z,1003.25
2017-03-22T00:11:57.964Z,1003.29
2017-03-22T00:12:38.432Z,1003.27
2017-03-22T00:13:18.929Z,1003.26
2017-03-22T00:13:59.429Z,1003.24
2017-03-22T00:14:39.912Z,1003.21
2017-03-22T00:15:20.539Z,1003.22
2017-03-22T00:16:00.999Z,1003.21
2017-03-22T00:16:41.490Z,1003.19
2017-03-22T00:17:21.965Z,1003.19
2017-03-22T00:18:02.446Z,1003.2
2017-03-22T00:18:42.939Z,1003.14
2017-03-22T00:19:23.422Z,1003.19
2017-03-22T00:20:03.907Z,1003.16
2017-03-22T00:20:44.403Z,1003.2
2017-03-22T00:21:24.889Z,1003.21
2017-03-22T00:22:05.398Z,1003.22
2017-03-22T00:22:45.850Z,1003.17
2017-03-22T00:23:26.304Z,1003.21
2017-03-22T00:24:06.760Z,1003.19
2017-03-22T00:24:47.208Z,1003.16
2017-03-22T00:25:27.672Z,1003.22
2017-03-22T00:26:08.100Z,1003.15
2017-03-22T00:26:48.541Z,1003.17
2017-03-22T00:27:28.995Z,1003.16
2017-03-22T00:29:41.665Z,1003.15
2017-03-22T00:30:22.165Z,1003.13
2017-03-22T00:31:02.646Z,1003.14
2017-03-22T00:31:43.115Z,1003.14
2017-03-22T00:32:24.172Z,1003.13
2017-03-22T00:33:04.645Z,1003.14
2017-03-22T00:33:45.127Z,1003.12
2017-03-22T00:34:25.621Z,1003.11
2017-03-22T00:35:06.102Z,1003.09
2017-03-22T00:35:46.584Z,1003.08
2017-03-22T00:36:27.066Z,1003.03
2017-03-22T00:37:07.544Z,1003.03
2017-03-22T00:37:48.024Z,1003.03
2017-03-22T00:38:28.524Z,1003.12
2017-03-22T00:39:08.988Z,1003.03
2017-03-22T00:39:49.473Z,1003.08
2017-03-22T00:40:29.948Z,1003.09
2017-03-22T00:41:10.389Z,1003.05
2017-03-22T00:41:50.827Z,1003.07
2017-03-22T00:42:31.294Z,1003.07
2017-03-22T00:43:11.765Z,1003.1
2017-03-22T00:43:52.237Z,1003.1
2017-03-22T00:44:32.741Z,1003.11
2017-03-22T00:45:13.225Z,1003.07
2017-03-22T00:45:53.705Z,1003.08
2017-03-22T00:46:34.186Z,1003.04
2017-03-22T00:47:14.677Z,1003.05
2017-03-22T00:47:55.147Z,1003.04
2017-03-22T00:48:36.267Z,1003.02
2017-03-22T00:49:16.742Z,1002.96
2017-03-22T00:49:57.220Z,1002.99
2017-03-22T00:50:37.664Z,1002.99
2017-03-22T00:51:18.093Z,1002.95
2017-03-22T00:51:58.526Z,1002.9
2017-03-22T00:52:38.969Z,1002.91
2017-03-22T00:53:19.407Z,1002.94
2017-03-22T00:53:59.866Z,1002.91
2017-03-22T00:54:40.322Z,1002.88
2017-03-22T00:55:20.790Z,1002.93
2017-03-22T00:56:01.258Z,1002.91
2017-03-22T00:56:41.726Z,1002.85
2017-03-22T00:57:22.191Z,1002.91
2017-03-22T00:58:02.660Z,1002.88
2017-03-22T00:58:43.130Z,1002.94
2017-03-22T00:59:23.594Z,1002.91
2017-03-22T01:00:04.019Z,1002.9
2017-03-22T01:00:44.474Z,1002.88
2017-03-22T01:01:24.958Z,1002.89
2017-03-22T01:02:05.439Z,1002.86
2017-03-22T01:02:45.933Z,1002.92
2017-03-22T01:03:26.421Z,1002.89
2017-03-22T01:04:06.901Z,1002.84
2017-03-22T01:04:47.365Z,1002.83
2017-03-22T01:05:27.857Z,1002.8
2017-03-22T01:06:08.328Z,1002.79
2017-03-22T01:06:48.797Z,1002.78
2017-03-22T01:07:29.216Z,1002.75
2017-03-22T01:08:09.700Z,1002.75
2017-03-22T01:08:50.171Z,1002.76
2017-03-22T01:09:30.642Z,1002.8
2017-03-22T01:10:11.138Z,1002.81
2017-03-22T01:10:51.641Z,1002.8
2017-03-22T01:11:32.119Z,1002.82
2017-03-22T01:12:12.578Z,1002.83
2017-03-22T01:12:53.076Z,1002.84
2017-03-22T01:13:33.571Z,1002.84
2017-03-22T01:14:15.002Z,1002.83
2017-03-22T01:14:55.486Z,1002.78
2017-03-22T01:15:35.958Z,1002.82
2017-03-22T01:16:16.395Z,1002.84
2017-03-22T01:16:56.837Z,1002.82
2017-03-22T01:17:37.263Z,1002.84
2017-03-22T01:18:17.719Z,1002.79
2017-03-22T01:18:58.183Z,1002.79
2017-03-22T01:19:38.610Z,1002.83
2017-03-22T01:21:31.152Z,1002.81
2017-03-22T01:22:11.641Z,1002.8
2017-03-22T01:22:52.122Z,1002.84
2017-03-22T01:23:32.602Z,1002.79
2017-03-22T01:24:13.092Z,1002.85
2017-03-22T01:24:53.578Z,1002.8
2017-03-22T01:25:34.049Z,1002.88
2017-03-22T01:26:14.525Z,1002.83
2017-03-22T01:26:54.995Z,1002.79
2017-03-22T01:27:35.487Z,1002.77
2017-03-22T01:28:15.970Z,1002.74
2017-03-22T01:28:56.448Z,1002.72
2017-03-22T01:29:36.930Z,1002.69
2017-03-22T01:30:17.378Z,1002.69
2017-03-22T01:30:57.821Z,1002.72
2017-03-22T01:31:38.282Z,1002.72
2017-03-22T01:32:18.752Z,1002.69
2017-03-22T01:34:36.539Z,1002.71
2017-03-22T01:35:17.019Z,1002.65
2017-03-22T01:35:57.502Z,1002.66
2017-03-22T01:36:37.974Z,1002.65
2017-03-22T01:37:18.459Z,1002.64
2017-03-22T01:37:58.907Z,1002.64
2017-03-22T01:38:39.374Z,1002.65
2017-03-22T01:39:19.854Z,1002.62
2017-03-22T01:40:00.324Z,1002.65
2017-03-22T01:40:40.809Z,1002.66
2017-03-22T01:41:21.256Z,1002.6
2017-03-22T01:42:01.722Z,1002.64
2017-03-22T01:42:42.199Z,1002.58
2017-03-22T01:43:22.674Z,1002.58
2017-03-22T01:44:03.163Z,1002.61
2017-03-22T01:44:43.635Z,1002.64
2017-03-22T01:45:24.124Z,1002.62
2017-03-22T01:46:04.599Z,1002.57
2017-03-22T01:46:45.070Z,1002.58
2017-03-22T01:47:25.564Z,1002.61
2017-03-22T01:48:06.063Z,1002.58
2017-03-22T01:48:46.543Z,1002.57
2017-03-22T01:49:27.016Z,1002.53
2017-03-22T01:50:07.479Z,1002.5
2017-03-22T01:50:47.941Z,1002.49
2017-03-22T01:51:28.417Z,1002.46
2017-03-22T01:52:08.846Z,1002.52
2017-03-22T01:52:49.316Z,1002.5
2017-03-22T01:53:29.777Z,1002.48
2017-03-22T01:54:10.212Z,1002.5
2017-03-22T01:54:50.694Z,1002.49
2017-03-22T01:55:31.147Z,1002.46
2017-03-22T01:56:11.573Z,1002.48
2017-03-22T01:56:52.020Z,1002.41
2017-03-22T01:57:32.452Z,1002.46
2017-03-22T01:58:12.935Z,1002.42
2017-03-22T01:58:53.391Z,1002.37
2017-03-22T01:59:33.842Z,1002.43
2017-03-22T02:00:14.312Z,1002.38
2017-03-22T02:00:54.794Z,1002.37
2017-03-22T02:01:35.283Z,1002.32
2017-03-22T02:02:16.259Z,1002.37
2017-03-22T02:02:56.692Z,1002.33
2017-03-22T02:04:54.317Z,1002.39
2017-03-22T02:05:34.797Z,1002.48
2017-03-22T02:06:15.269Z,1002.41
2017-03-22T02:06:55.760Z,1002.4
2017-03-22T02:07:36.239Z,1002.43
2017-03-22T02:08:16.745Z,1002.39
2017-03-22T02:08:57.207Z,1002.35
2017-03-22T02:09:37.691Z,1002.37
2017-03-22T02:10:18.176Z,1002.37
2017-03-22T02:10:58.668Z,1002.38
2017-03-22T02:11:39.148Z,1002.36
2017-03-22T02:12:19.649Z,1002.41
2017-03-22T02:13:00.150Z,1002.43
2017-03-22T02:13:40.630Z,1002.46
2017-03-22T02:14:21.094Z,1002.45
2017-03-22T02:15:01.583Z,1002.44
2017-03-22T02:15:42.077Z,1002.45
2017-03-22T02:16:22.557Z,1002.49
2017-03-22T02:17:03.037Z,1002.47
2017-03-22T02:17:43.524Z,1002.53
2017-03-22T02:18:24.016Z,1002.47
2017-03-22T02:19:04.484Z,1002.48
2017-03-22T02:19:44.943Z,1002.49
2017-03-22T02:20:25.395Z,1002.46
2017-03-22T02:21:05.860Z,1002.44
2017-03-22T02:21:46.314Z,1002.42
2017-03-22T02:22:26.784Z,1002.38
2017-03-22T02:23:07.245Z,1002.42
2017-03-22T02:23:47.676Z,1002.38
2017-03-22T02:24:28.142Z,1002.42
2017-03-22T02:25:08.609Z,1002.38
2017-03-22T02:25:49.099Z,1002.34
2017-03-22T02:26:29.555Z,1002.31
2017-03-22T02:28:22.084Z,1002.3
2017-03-22T02:29:02.575Z,1002.27
2017-03-22T02:29:43.058Z,1002.27
2017-03-22T02:30:23.529Z,1002.3
2017-03-22T02:31:04.013Z,1002.26
2017-03-22T02:31:44.488Z,1002.25
2017-03-22T02:32:24.976Z,1002.26
2017-03-22T02:33:05.455Z,1002.28
2017-03-22T02:33:45.941Z,1002.29
2017-03-22T02:34:26.407Z,1002.29
2017-03-22T02:35:06.891Z,1002.32
2017-03-22T02:35:47.373Z,1002.34
2017-03-22T02:36:27.809Z,1002.35
2017-03-22T02:37:08.262Z,1002.34
2017-03-22T02:39:05.878Z,1002.38
2017-03-22T02:39:46.328Z,1002.38
2017-03-22T02:40:26.819Z,1002.38
2017-03-22T02:41:07.295Z,1002.38
2017-03-22T02:41:47.781Z,1002.36
2017-03-22T02:42:28.274Z,1002.34
2017-03-22T02:43:08.768Z,1002.37
2017-03-22T02:43:49.243Z,1002.39
2017-03-22T02:44:29.719Z,1002.36
2017-03-22T02:45:10.204Z,1002.38
2017-03-22T02:45:50.675Z,1002.41
2017-03-22T02:47:43.227Z,1002.45
2017-03-22T02:48:23.706Z,1002.5
2017-03-22T02:49:04.195Z,1002.53
2017-03-22T02:49:44.672Z,1002.57
2017-03-22T02:50:25.141Z,1002.54
2017-03-22T02:51:05.621Z,1002.56
2017-03-22T02:51:46.096Z,1002.55
2017-03-22T02:52:26.590Z,1002.56
2017-03-22T02:53:07.068Z,1002.5
2017-03-22T02:53:47.535Z,1002.56
2017-03-22T02:54:27.994Z,1002.47
2017-03-22T02:55:09.429Z,1002.55
2017-03-22T02:55:49.902Z,1002.51
2017-03-22T02:56:30.352Z,1002.48
2017-03-22T02:57:10.803Z,1002.58
2017-03-22T02:57:51.257Z,1002.56
2017-03-22T02:58:31.872Z,1002.6
2017-03-22T02:59:12.373Z,1002.63
2017-03-22T02:59:52.861Z,1002.61
2017-03-22T03:00:33.344Z,1002.6
2017-03-22T03:01:13.841Z,1002.62
2017-03-22T03:01:54.337Z,1002.55
2017-03-22T03:02:34.807Z,1002.52
2017-03-22T03:03:15.284Z,1002.53
2017-03-22T03:03:55.783Z,1002.51
2017-03-22T03:04:36.277Z,1002.49
2017-03-22T03:05:16.753Z,1002.47
2017-03-22T03:05:57.224Z,1002.47
2017-03-22T03:06:37.717Z,1002.42
2017-03-22T03:07:18.214Z,1002.46
2017-03-22T03:07:58.694Z,1002.45
2017-03-22T03:08:39.194Z,1002.48
2017-03-22T03:09:19.683Z,1002.49
2017-03-22T03:10:00.164Z,1002.5
2017-03-22T03:10:40.647Z,1002.49
2017-03-22T03:11:21.112Z,1002.53
2017-03-22T03:12:01.575Z,1002.49
2017-03-22T03:12:42.024Z,1002.56
2017-03-22T03:13:22.491Z,1002.58
2017-03-22T03:14:02.950Z,1002.61
2017-03-22T03:14:43.428Z,1002.64
2017-03-22T03:15:23.908Z,1002.61
2017-03-22T03:16:04.365Z,1002.61
2017-03-22T03:16:44.853Z,1002.59
2017-03-22T03:17:25.314Z,1002.58
2017-03-22T03:18:05.756Z,1002.6
2017-03-22T03:18:46.196Z,1002.59
2017-03-22T03:19:26.671Z,1002.56
2017-03-22T03:20:07.144Z,1002.58
2017-03-22T03:20:47.594Z,1002.54
2017-03-22T03:21:28.038Z,1002.57
2017-03-22T03:22:08.463Z,1002.57
2017-03-22T03:22:48.919Z,1002.58
2017-03-22T03:23:29.415Z,1002.56
2017-03-22T03:24:09.851Z,1002.58
2017-03-22T03:24:50.320Z,1002.6
2017-03-22T03:25:30.795Z,1002.6
2017-03-22T03:26:11.249Z,1002.62
2017-03-22T03:26:51.723Z,1002.58
2017-03-22T03:27:32.197Z,1002.57
2017-03-22T03:28:12.686Z,1002.63
2017-03-22T03:28:53.178Z,1002.58
2017-03-22T03:29:33.651Z,1002.62
2017-03-22T03:30:14.126Z,1002.64
2017-03-22T03:30:54.623Z,1002.61
2017-03-22T03:31:35.112Z,1002.61
2017-03-22T03:32:15.587Z,1002.64
2017-03-22T03:32:56.061Z,1002.63
2017-03-22T03:33:36.550Z,1002.67
2017-03-22T03:34:17.049Z,1002.62
2017-03-22T03:34:57.529Z,1002.62
2017-03-22T03:35:38.001Z,1002.64
2017-03-22T03:36:18.485Z,1002.58
2017-03-22T03:36:58.975Z,1002.6
2017-03-22T03:37:39.451Z,1002.62
2017-03-22T03:38:19.900Z,1002.63
2017-03-22T03:39:00.376Z,1002.59
2017-03-22T03:39:40.920Z,1002.6
2017-03-22T03:40:21.403Z,1002.59
2017-03-22T03:41:01.881Z,1002.6
2017-03-22T03:41:42.371Z,1002.59
2017-03-22T03:42:22.854Z,1002.6
2017-03-22T03:43:03.930Z,1002.61
2017-03-22T03:43:44.406Z,1002.61
2017-03-22T03:44:24.909Z,1002.62
2017-03-22T03:45:05.378Z,1002.61
2017-03-22T03:45:45.864Z,1002.63
2017-03-22T03:46:26.295Z,1002.63
2017-03-22T03:47:06.757Z,1002.63
2017-03-22T03:48:59.324Z,1002.6
2017-03-22T03:49:39.789Z,1002.63
2017-03-22T03:50:20.269Z,1002.62
2017-03-22T03:51:00.752Z,1002.64
2017-03-22T03:51:41.247Z,1002.68
2017-03-22T03:52:21.726Z,1002.62
2017-03-22T03:53:02.193Z,1002.71
2017-03-22T03:53:42.680Z,1002.7
2017-03-22T03:54:23.174Z,1002.71
2017-03-22T03:55:03.653Z,1002.7
2017-03-22T03:55:44.983Z,1002.72
2017-03-22T03:57:42.602Z,1002.72
2017-03-22T03:58:23.129Z,1002.72
2017-03-22T03:59:03.639Z,1002.72
2017-03-22T03:59:44.117Z,1002.73
2017-03-22T04:00:24.598Z,1002.76
2017-03-22T04:01:05.106Z,1002.79
2017-03-22T04:01:45.595Z,1002.76
2017-03-22T04:02:26.071Z,1002.77
2017-03-22T04:03:06.591Z,1002.74
2017-03-22T04:03:47.037Z,1002.7
2017-03-22T04:04:27.453Z,1002.7
2017-03-22T04:05:07.889Z,1002.71
2017-03-22T04:05:48.332Z,1002.71
2017-03-22T04:06:28.788Z,1002.66
2017-03-22T04:07:09.242Z,1002.69
2017-03-22T04:07:49.662Z,1002.64
2017-03-22T04:08:30.122Z,1002.68
2017-03-22T04:09:10.573Z,1002.67
2017-03-22T04:09:51.043Z,1002.68
2017-03-22T04:12:18.935Z,1002.71
2017-03-22T04:12:59.419Z,1002.68
2017-03-22T04:13:39.891Z,1002.69
2017-03-22T04:14:20.364Z,1002.7
2017-03-22T04:15:00.841Z,1002.69
2017-03-22T04:15:41.340Z,1002.69
2017-03-22T04:16:21.826Z,1002.76
2017-03-22T04:17:02.308Z,1002.72
2017-03-22T04:17:42.798Z,1002.72
2017-03-22T04:18:23.277Z,1002.73
2017-03-22T04:19:03.769Z,1002.71
2017-03-22T04:19:44.258Z,1002.74
2017-03-22T04:20:24.750Z,1002.72
2017-03-22T04:21:05.235Z,1002.74
2017-03-22T04:21:45.713Z,1002.74
2017-03-22T04:22:26.185Z,1002.8
2017-03-22T04:23:06.629Z,1002.77
2017-03-22T04:23:47.074Z,1002.77
2017-03-22T04:24:27.483Z,1002.8
2017-03-22T04:25:07.927Z,1002.79
2017-03-22T04:25:48.365Z,1002.83
2017-03-22T04:26:28.785Z,1002.84
2017-03-22T04:27:09.238Z,1002.81
2017-03-22T04:27:49.732Z,1002.82
2017-03-22T04:28:30.218Z,1002.83
2017-03-22T04:29:10.692Z,1002.81
2017-03-22T04:29:51.166Z,1002.83
2017-03-22T04:30:31.651Z,1002.87
2017-03-22T04:31:12.144Z,1002.9
2017-03-22T04:31:52.643Z,1002.89
2017-03-22T04:32:33.138Z,1002.94
2017-03-22T04:33:13.620Z,1002.92
2017-03-22T04:33:54.119Z,1002.94
2017-03-22T04:34:34.594Z,1002.94
2017-03-22T04:35:15.092Z,1002.94
2017-03-22T04:35:55.571Z,1002.95
2017-03-22T04:36:36.047Z,1002.91
2017-03-22T04:37:16.514Z,1002.86
2017-03-22T04:37:56.964Z,1002.87
2017-03-22T04:39:49.541Z,1002.87
2017-03-22T04:40:30.021Z,1002.91
2017-03-22T04:41:10.476Z,1002.86
2017-03-22T04:41:50.972Z,1002.86
2017-03-22T04:42:31.464Z,1002.85
2017-03-22T04:43:11.949Z,1002.88
2017-03-22T04:43:52.441Z,1002.87
2017-03-22T04:44:32.941Z,1002.87
2017-03-22T04:45:13.423Z,1002.84
2017-03-22T04:45:54.882Z,1002.84
2017-03-22T04:46:35.362Z,1002.82
2017-03-22T04:47:15.832Z,1002.81
2017-03-22T04:47:56.318Z,1002.8
2017-03-22T04:48:36.815Z,1002.76
2017-03-22T04:49:17.300Z,1002.8
2017-03-22T04:49:57.778Z,1002.76
2017-03-22T04:50:38.251Z,1002.75
2017-03-22T04:51:18.749Z,1002.71
2017-03-22T04:51:59.222Z,1002.71
2017-03-22T04:52:39.651Z,1002.7
2017-03-22T04:53:20.120Z,1002.68
2017-03-22T04:54:00.607Z,1002.64
2017-03-22T04:54:41.046Z,1002.67
2017-03-22T04:55:21.523Z,1002.65
2017-03-22T04:56:02.025Z,1002.64
2017-03-22T04:56:42.522Z,1002.69
2017-03-22T04:57:22.996Z,1002.68
2017-03-22T04:59:40.818Z,1002.73
2017-03-22T05:00:21.295Z,1002.74
2017-03-22T05:01:01.786Z,1002.74
2017-03-22T05:01:42.283Z,1002.72
2017-03-22T05:02:22.764Z,1002.73
2017-03-22T05:03:03.316Z,1002.75
2017-03-22T05:03:43.793Z,1002.74
2017-03-22T05:04:24.281Z,1002.74
2017-03-22T05:05:04.773Z,1002.75
2017-03-22T05:05:45.258Z,1002.75
2017-03-22T05:06:25.715Z,1002.73
2017-03-22T05:08:23.373Z,1002.73
2017-03-22T05:09:03.770Z,1002.71
2017-03-22T05:11:01.370Z,1002.73
2017-03-22T05:11:41.824Z,1002.77
2017-03-22T05:12:22.293Z,1002.82
2017-03-22T05:13:02.787Z,1002.87
2017-03-22T05:13:43.260Z,1002.89
2017-03-22T05:14:23.737Z,1002.91
2017-03-22T05:15:04.201Z,1002.9
2017-03-22T05:15:44.691Z,1002.92
2017-03-22T05:16:25.171Z,1002.92
2017-03-22T05:17:05.660Z,1002.93
2017-03-22T05:17:46.122Z,1002.92
2017-03-22T05:18:26.593Z,1002.93
2017-03-22T05:19:07.074Z,1002.88
2017-03-22T05:19:47.573Z,1002.89
2017-03-22T05:20:28.040Z,1002.89
2017-03-22T05:21:08.502Z,1002.91
2017-03-22T05:21:48.970Z,1002.9
2017-03-22T05:23:41.524Z,1002.91
2017-03-22T05:24:22.010Z,1002.88
2017-03-22T05:25:02.497Z,1002.91
2017-03-22T05:25:42.978Z,1002.92
2017-03-22T05:26:23.443Z,1002.96
2017-03-22T05:27:03.889Z,1002.9
2017-03-22T05:27:44.328Z,1002.95
2017-03-22T05:28:24.825Z,1002.9
2017-03-22T05:29:05.318Z,1002.9
2017-03-22T05:29:45.799Z,1002.91
2017-03-22T05:30:26.337Z,1002.93
2017-03-22T05:31:06.800Z,1002.93
2017-03-22T05:31:47.251Z,1002.92
2017-03-22T05:32:27.695Z,1002.9
2017-03-22T05:33:08.175Z,1002.9
2017-03-22T05:33:48.657Z,1002.94
2017-03-22T05:34:29.153Z,1002.93
2017-03-22T05:35:09.646Z,1002.96
2017-03-22T05:35:50.130Z,1002.95
2017-03-22T05:36:30.601Z,1002.98
2017-03-22T05:37:11.039Z,1003
2017-03-22T05:37:51.492Z,1003.01
2017-03-22T05:38:31.973Z,1003.04
2017-03-22T05:39:12.469Z,1003.02
2017-03-22T05:39:52.954Z,1003.01
2017-03-22T05:40:33.438Z,1003
2017-03-22T05:41:13.940Z,1002.98
2017-03-22T05:41:54.429Z,1002.98
2017-03-22T05:42:34.892Z,1002.97
2017-03-22T05:43:15.368Z,1002.98
2017-03-22T05:43:55.850Z,1002.94
2017-03-22T05:44:36.341Z,1002.92
2017-03-22T05:45:16.823Z,1002.89
2017-03-22T05:45:57.308Z,1002.92
2017-03-22T05:46:37.765Z,1002.85
2017-03-22T05:47:18.234Z,1002.85
2017-03-22T05:47:58.694Z,1002.85
2017-03-22T05:50:16.498Z,1002.8
2017-03-22T05:50:56.980Z,1002.87
2017-03-22T05:51:37.462Z,1002.87
2017-03-22T05:52:17.934Z,1002.9
2017-03-22T05:52:58.399Z,1002.92
2017-03-22T05:53:38.892Z,1002.89
2017-03-22T05:54:19.378Z,1002.84
2017-03-22T05:54:59.852Z,1002.84
2017-03-22T05:55:40.348Z,1002.77
2017-03-22T05:56:20.826Z,1002.68
2017-03-22T05:57:01.310Z,1002.69
2017-03-22T05:57:41.779Z,1002.62
2017-03-22T05:58:22.268Z,1002.61
2017-03-22T05:59:02.758Z,1002.65
2017-03-22T05:59:43.200Z,1002.64
2017-03-22T06:01:35.728Z,1002.72
2017-03-22T06:02:16.217Z,1002.71
2017-03-22T06:02:56.706Z,1002.71
2017-03-22T06:03:37.188Z,1002.68
2017-03-22T06:04:17.658Z,1002.68
2017-03-22T06:04:58.164Z,1002.64
2017-03-22T06:05:38.649Z,1002.64
2017-03-22T06:07:56.505Z,1002.61
2017-03-22T06:08:36.975Z,1002.63
2017-03-22T06:09:17.456Z,1002.6
2017-03-22T06:09:57.943Z,1002.58
2017-03-22T06:10:38.401Z,1002.59
2017-03-22T06:11:18.877Z,1002.61
2017-03-22T06:11:59.369Z,1002.59
2017-03-22T06:12:39.834Z,1002.58
2017-03-22T06:13:20.300Z,1002.61
2017-03-22T06:14:00.771Z,1002.6
2017-03-22T06:14:41.268Z,1002.6
2017-03-22T06:15:21.706Z,1002.59
2017-03-22T06:16:02.147Z,1002.56
2017-03-22T06:16:42.599Z,1002.56
2017-03-22T06:17:23.045Z,1002.58
2017-03-22T06:18:03.494Z,1002.6
2017-03-22T06:18:43.956Z,1002.6
2017-03-22T06:19:24.406Z,1002.59
2017-03-22T06:20:04.882Z,1002.69
2017-03-22T06:20:45.344Z,1002.66
2017-03-22T06:22:42.962Z,1002.77
2017-03-22T06:23:23.464Z,1002.78
2017-03-22T06:24:03.941Z,1002.79
2017-03-22T06:24:44.428Z,1002.84
2017-03-22T06:25:24.912Z,1002.84
2017-03-22T06:26:05.398Z,1002.83
2017-03-22T06:26:45.869Z,1002.8
2017-03-22T06:27:26.343Z,1002.77
2017-03-22T06:28:06.818Z,1002.75
2017-03-22T06:28:47.301Z,1002.77
2017-03-22T06:29:27.795Z,1002.75
2017-03-22T06:30:08.277Z,1002.79
2017-03-22T06:30:48.766Z,1002.8
2017-03-22T06:31:29.267Z,1002.8
2017-03-22T06:32:09.753Z,1002.8
2017-03-22T06:32:50.187Z,1002.78
2017-03-22T06:35:02.912Z,1002.79
2017-03-22T06:35:43.395Z,1002.8
2017-03-22T06:36:23.876Z,1002.74
2017-03-22T06:37:04.368Z,1002.76
2017-03-22T06:37:44.865Z,1002.76
2017-03-22T06:38:25.350Z,1002.69
2017-03-22T06:39:05.851Z,1002.72
2017-03-22T06:39:46.342Z,1002.68
2017-03-22T06:40:26.824Z,1002.68
2017-03-22T06:41:07.311Z,1002.7
2017-03-22T06:41:47.806Z,1002.72
2017-03-22T06:42:28.334Z,1002.74
2017-03-22T06:43:08.742Z,1002.73
2017-03-22T06:43:49.224Z,1002.75
2017-03-22T06:44:29.706Z,1002.74
2017-03-22T06:46:22.228Z,1002.78
2017-03-22T06:47:02.807Z,1002.78
2017-03-22T06:47:43.182Z,1002.82
2017-03-22T06:48:23.616Z,1002.81
2017-03-22T06:49:04.067Z,1002.81
2017-03-22T06:49:44.525Z,1002.82
2017-03-22T06:50:25.008Z,1002.84
2017-03-22T06:51:05.493Z,1002.83
2017-03-22T06:51:45.979Z,1002.81
2017-03-22T06:52:26.468Z,1002.8
2017-03-22T06:53:06.965Z,1002.8
2017-03-22T06:53:47.461Z,1002.86
2017-03-22T06:54:27.938Z,1002.81
2017-03-22T06:55:08.420Z,1002.84
2017-03-22T06:55:48.901Z,1002.88
2017-03-22T06:56:29.397Z,1002.81
2017-03-22T06:57:09.877Z,1002.84
2017-03-22T06:57:50.375Z,1002.84
2017-03-22T06:58:30.870Z,1002.83
2017-03-22T06:59:11.353Z,1002.8
2017-03-22T06:59:51.844Z,1002.82
2017-03-22T07:00:32.322Z,1002.8
2017-03-22T07:01:12.811Z,1002.8
2017-03-22T07:01:53.291Z,1002.84
2017-03-22T07:02:33.766Z,1002.81
2017-03-22T07:03:14.283Z,1002.79
2017-03-22T07:03:54.753Z,1002.78
2017-03-22T07:04:35.249Z,1002.79
2017-03-22T07:05:15.727Z,1002.75
2017-03-22T07:05:56.223Z,1002.72
2017-03-22T07:06:36.708Z,1002.74
2017-03-22T07:07:17.184Z,1002.73
2017-03-22T07:07:57.634Z,1002.7
2017-03-22T07:08:38.104Z,1002.69
2017-03-22T07:09:18.575Z,1002.67
2017-03-22T07:09:59.033Z,1002.71
2017-03-22T07:10:39.454Z,1002.71
2017-03-22T07:11:20.692Z,1002.67
2017-03-22T07:12:01.133Z,1002.7
2017-03-22T07:12:41.565Z,1002.7
2017-03-22T07:13:21.998Z,1002.69
2017-03-22T07:14:03.203Z,1002.67
2017-03-22T07:14:43.657Z,1002.69
2017-03-22T07:15:24.080Z,1002.69
2017-03-22T07:16:04.545Z,1002.67
2017-03-22T07:16:44.982Z,1002.72
2017-03-22T07:17:25.428Z,1002.7
2017-03-22T07:18:05.893Z,1002.71
2017-03-22T07:18:47.022Z,1002.74
2017-03-22T07:19:27.436Z,1002.76
2017-03-22T07:20:07.888Z,1002.8
2017-03-22T07:20:48.405Z,1002.83
2017-03-22T07:21:28.924Z,1002.83
2017-03-22T07:22:09.419Z,1002.86
2017-03-22T07:22:49.834Z,1002.89
2017-03-22T07:23:30.295Z,1002.87
2017-03-22T07:24:10.749Z,1002.84
2017-03-22T07:26:23.467Z,1002.82
2017-03-22T07:27:03.976Z,1002.85
2017-03-22T07:27:44.419Z,1002.9
2017-03-22T07:28:24.947Z,1002.87
2017-03-22T07:29:05.395Z,1002.94
2017-03-22T07:30:57.936Z,1002.92
2017-03-22T07:31:38.407Z,1002.95
2017-03-22T07:32:18.881Z,1002.92
2017-03-22T07:32:59.289Z,1002.92
2017-03-22T07:33:39.767Z,1002.94
2017-03-22T07:34:20.231Z,1002.94
2017-03-22T07:35:00.683Z,1002.94
2017-03-22T07:35:41.139Z,1002.98
2017-03-22T07:37:58.980Z,1002.94
2017-03-22T07:38:39.414Z,1002.97
2017-03-22T07:39:19.923Z,1003
2017-03-22T07:40:00.430Z,1002.97
2017-03-22T07:40:40.914Z,1002.98
2017-03-22T07:41:21.395Z,1003
2017-03-22T07:42:01.879Z,1003.02
2017-03-22T07:42:43.120Z,1003.03
2017-03-22T07:43:23.621Z,1003.01
2017-03-22T07:44:04.104Z,1003.06
2017-03-22T07:44:44.599Z,1003.08
2017-03-22T07:45:25.069Z,1003.08
2017-03-22T07:46:05.558Z,1003.04
2017-03-22T07:46:46.041Z,1003.08
2017-03-22T07:47:26.526Z,1003.05
2017-03-22T07:49:39.248Z,1002.96
2017-03-22T07:50:19.726Z,1002.96
2017-03-22T07:51:00.212Z,1002.99
2017-03-22T07:51:40.689Z,1002.99
2017-03-22T07:52:21.179Z,1003.04
2017-03-22T07:53:01.662Z,1003.03
2017-03-22T07:53:42.169Z,1003.03
2017-03-22T07:54:22.689Z,1003.04
2017-03-22T07:55:03.186Z,1003.04
2017-03-22T07:55:43.673Z,1003.01
2017-03-22T07:56:24.151Z,1003.07
2017-03-22T07:57:04.634Z,1003.08
2017-03-22T07:57:45.105Z,1003.07
2017-03-22T07:58:25.565Z,1003.05
2017-03-22T07:59:05.998Z,1003.08
2017-03-22T07:59:46.472Z,1003.1
2017-03-22T08:01:39.043Z,1003.11
2017-03-22T08:02:19.524Z,1003.1
2017-03-22T08:03:00.019Z,1003.09
2017-03-22T08:03:40.539Z,1003.12
2017-03-22T08:04:21.028Z,1003.08
2017-03-22T08:05:01.512Z,1003.1
2017-03-22T08:05:41.984Z,1003.13
2017-03-22T08:06:22.490Z,1003.13
2017-03-22T08:07:02.961Z,1003.16
2017-03-22T08:07:44.239Z,1003.17
2017-03-22T08:08:24.721Z,1003.13
2017-03-22T08:09:05.204Z,1003.14
2017-03-22T08:09:45.691Z,1003.15
2017-03-22T08:10:26.180Z,1003.14
2017-03-22T08:11:06.646Z,1003.14
2017-03-22T08:11:47.106Z,1003.14
2017-03-22T08:12:27.605Z,1003.18
2017-03-22T08:13:08.113Z,1003.16
2017-03-22T08:13:48.604Z,1003.19
2017-03-22T08:14:29.088Z,1003.21
2017-03-22T08:15:09.590Z,1003.22
2017-03-22T08:15:50.046Z,1003.21
2017-03-22T08:16:30.506Z,1003.19
2017-03-22T08:17:10.989Z,1003.24
2017-03-22T08:17:52.096Z,1003.18
2017-03-22T08:18:32.599Z,1003.17
2017-03-22T08:19:13.078Z,1003.2
2017-03-22T08:19:53.503Z,1003.17
2017-03-22T08:20:33.965Z,1003.2
2017-03-22T08:21:14.438Z,1003.18
2017-03-22T08:21:54.931Z,1003.22
2017-03-22T08:22:35.411Z,1003.28
2017-03-22T08:23:15.913Z,1003.28
2017-03-22T08:23:56.397Z,1003.26
2017-03-22T08:24:36.889Z,1003.28
2017-03-22T08:25:17.383Z,1003.31
2017-03-22T08:25:57.882Z,1003.32
2017-03-22T08:26:38.378Z,1003.32
2017-03-22T08:27:18.862Z,1003.28
2017-03-22T08:27:59.310Z,1003.3
2017-03-22T08:28:39.872Z,1003.3
2017-03-22T08:29:20.333Z,1003.23
2017-03-22T08:30:00.817Z,1003.23
2017-03-22T08:30:41.326Z,1003.24
2017-03-22T08:31:21.784Z,1003.27
2017-03-22T08:32:02.254Z,1003.27
2017-03-22T08:32:42.665Z,1003.3
2017-03-22T08:33:23.081Z,1003.26
2017-03-22T08:35:21.666Z,1003.28
2017-03-22T08:36:02.119Z,1003.3
2017-03-22T08:36:42.593Z,1003.29
2017-03-22T08:37:23.073Z,1003.26
2017-03-22T08:38:03.526Z,1003.26
2017-03-22T08:38:43.967Z,1003.26
2017-03-22T08:39:24.444Z,1003.28
2017-03-22T08:40:04.904Z,1003.24
2017-03-22T08:42:32.815Z,1003.19
2017-03-22T08:43:13.300Z,1003.22
2017-03-22T08:43:53.801Z,1003.17
2017-03-22T08:44:34.306Z,1003.17
2017-03-22T08:45:14.799Z,1003.16
2017-03-22T08:45:55.304Z,1003.17
2017-03-22T08:46:35.859Z,1003.16
2017-03-22T08:47:16.297Z,1003.12
2017-03-22T08:47:56.784Z,1003.13
2017-03-22T08:48:37.238Z,1003.12
2017-03-22T08:49:17.708Z,1003.1
2017-03-22T08:49:58.185Z,1003.09
2017-03-22T08:50:38.685Z,1003.11
2017-03-22T08:51:19.214Z,1003.15
2017-03-22T08:51:59.719Z,1003.14
2017-03-22T08:52:40.242Z,1003.14
2017-03-22T08:53:20.744Z,1003.16